sensor_id;sensor_type;location;lat;lon;timestamp;temperature;humidity
580;DHT22;276;48.392;9.950;2023-08-17T00:01:23;24.50;99.90
580;DHT22;276;48.392;9.950;2023-08-17T00:03:51;24.50;99.90
580;DHT22;276;48.392;9.950;2023-08-17T00:06:16;24.50;99.90
580;DHT22;276;48.392;9.950;2023-08-17T00:08:42;24.40;99.90
580;DHT22;276;48.392;9.950;2023-08-17T00:11:10;24.40;99.90
580;DHT22;276;48.392;9.950;2023-08-17T00:13:36;24.30;99.90
580;DHT22;276;48.392;9.950;2023-08-17T00:16:02;24.30;99.90
580;DHT22;276;48.392;9.950;2023-08-17T00:18:30;24.30;99.90
580;DHT22;276;48.392;9.950;2023-08-17T00:20:58;24.20;99.90
580;DHT22;276;48.392;9.950;2023-08-17T00:23:24;24.20;99.90
580;DHT22;276;48.392;9.950;2023-08-17T00:25:49;24.10;99.90
580;DHT22;276;48.392;9.950;2023-08-17T00:28:15;24.10;99.90
580;DHT22;276;48.392;9.950;2023-08-17T00:30:43;24.00;99.90
580;DHT22;276;48.392;9.950;2023-08-17T00:33:08;24.00;99.90
580;DHT22;276;48.392;9.950;2023-08-17T00:35:34;24.00;99.90
580;DHT22;276;48.392;9.950;2023-08-17T00:38:02;24.00;99.90
580;DHT22;276;48.392;9.950;2023-08-17T00:40:28;23.90;99.90
580;DHT22;276;48.392;9.950;2023-08-17T00:42:55;23.90;99.90
580;DHT22;276;48.392;9.950;2023-08-17T00:45:23;23.90;99.90
580;DHT22;276;48.392;9.950;2023-08-17T00:47:49;23.90;99.90
580;DHT22;276;48.392;9.950;2023-08-17T00:50:18;23.80;99.90
580;DHT22;276;48.392;9.950;2023-08-17T00:52:46;23.80;99.90
580;DHT22;276;48.392;9.950;2023-08-17T00:55:11;23.70;99.90
580;DHT22;276;48.392;9.950;2023-08-17T00:57:41;23.70;99.90
580;DHT22;276;48.392;9.950;2023-08-17T01:00:12;23.70;99.90
580;DHT22;276;48.392;9.950;2023-08-17T01:02:42;23.70;99.90
580;DHT22;276;48.392;9.950;2023-08-17T01:05:08;23.80;99.90
580;DHT22;276;48.392;9.950;2023-08-17T01:07:34;23.80;99.90
580;DHT22;276;48.392;9.950;2023-08-17T01:10:02;23.80;99.90
580;DHT22;276;48.392;9.950;2023-08-17T01:12:31;23.90;99.90
580;DHT22;276;48.392;9.950;2023-08-17T01:17:48;23.80;99.90
580;DHT22;276;48.392;9.950;2023-08-17T01:20:19;23.80;99.90
580;DHT22;276;48.392;9.950;2023-08-17T01:22:55;23.80;99.90
580;DHT22;276;48.392;9.950;2023-08-17T01:25:23;23.80;99.90
580;DHT22;276;48.392;9.950;2023-08-17T01:27:51;23.80;99.90
580;DHT22;276;48.392;9.950;2023-08-17T01:30:17;23.70;99.90
580;DHT22;276;48.392;9.950;2023-08-17T01:33:06;23.70;99.90
580;DHT22;276;48.392;9.950;2023-08-17T01:35:47;23.70;99.90
580;DHT22;276;48.392;9.950;2023-08-17T01:38:18;23.70;99.90
580;DHT22;276;48.392;9.950;2023-08-17T01:40:48;23.70;99.90
580;DHT22;276;48.392;9.950;2023-08-17T01:43:16;23.70;99.90
580;DHT22;276;48.392;9.950;2023-08-17T01:45:41;23.70;99.90
580;DHT22;276;48.392;9.950;2023-08-17T01:48:09;23.70;99.90
580;DHT22;276;48.392;9.950;2023-08-17T01:50:40;23.70;99.90
580;DHT22;276;48.392;9.950;2023-08-17T01:53:10;23.70;99.90
580;DHT22;276;48.392;9.950;2023-08-17T01:55:37;23.70;99.90
580;DHT22;276;48.392;9.950;2023-08-17T01:58:03;23.60;99.90
580;DHT22;276;48.392;9.950;2023-08-17T02:00:28;23.60;99.90
580;DHT22;276;48.392;9.950;2023-08-17T02:02:54;23.60;99.90
580;DHT22;276;48.392;9.950;2023-08-17T02:05:22;23.60;99.90
580;DHT22;276;48.392;9.950;2023-08-17T02:07:50;23.60;99.90
580;DHT22;276;48.392;9.950;2023-08-17T02:10:18;23.60;99.90
580;DHT22;276;48.392;9.950;2023-08-17T02:12:46;23.60;99.90
580;DHT22;276;48.392;9.950;2023-08-17T02:15:12;23.60;99.90
580;DHT22;276;48.392;9.950;2023-08-17T02:17:40;23.60;99.90
580;DHT22;276;48.392;9.950;2023-08-17T02:20:06;23.60;99.90
580;DHT22;276;48.392;9.950;2023-08-17T02:22:36;23.60;99.90
580;DHT22;276;48.392;9.950;2023-08-17T02:25:05;23.60;99.90
580;DHT22;276;48.392;9.950;2023-08-17T02:27:33;23.60;99.90
580;DHT22;276;48.392;9.950;2023-08-17T02:29:59;23.60;99.90
580;DHT22;276;48.392;9.950;2023-08-17T02:32:27;23.60;99.90
580;DHT22;276;48.392;9.950;2023-08-17T02:34:55;23.60;99.90
580;DHT22;276;48.392;9.950;2023-08-17T02:37:23;23.60;99.90
580;DHT22;276;48.392;9.950;2023-08-17T02:39:48;23.50;99.90
580;DHT22;276;48.392;9.950;2023-08-17T02:42:14;23.50;99.90
580;DHT22;276;48.392;9.950;2023-08-17T02:44:42;23.50;99.90
580;DHT22;276;48.392;9.950;2023-08-17T02:47:10;23.50;99.90
580;DHT22;276;48.392;9.950;2023-08-17T02:49:35;23.40;99.90
580;DHT22;276;48.392;9.950;2023-08-17T02:52:01;23.40;99.90
580;DHT22;276;48.392;9.950;2023-08-17T02:54:27;23.40;99.90
580;DHT22;276;48.392;9.950;2023-08-17T02:56:52;23.40;99.90
580;DHT22;276;48.392;9.950;2023-08-17T02:59:20;23.40;99.90
580;DHT22;276;48.392;9.950;2023-08-17T03:01:45;23.40;99.90
580;DHT22;276;48.392;9.950;2023-08-17T03:04:13;23.40;99.90
580;DHT22;276;48.392;9.950;2023-08-17T03:06:44;23.40;99.90
580;DHT22;276;48.392;9.950;2023-08-17T03:09:12;23.40;99.90
580;DHT22;276;48.392;9.950;2023-08-17T03:11:37;23.50;99.90
580;DHT22;276;48.392;9.950;2023-08-17T03:14:03;23.50;99.90
580;DHT22;276;48.392;9.950;2023-08-17T03:16:31;23.50;99.90
580;DHT22;276;48.392;9.950;2023-08-17T03:18:57;23.50;99.90
580;DHT22;276;48.392;9.950;2023-08-17T03:21:22;23.50;99.90
580;DHT22;276;48.392;9.950;2023-08-17T03:23:49;23.50;99.90
580;DHT22;276;48.392;9.950;2023-08-17T03:26:15;23.40;99.90
580;DHT22;276;48.392;9.950;2023-08-17T03:28:41;23.40;99.90
580;DHT22;276;48.392;9.950;2023-08-17T03:31:09;23.40;99.90
580;DHT22;276;48.392;9.950;2023-08-17T03:33:35;23.40;99.90
580;DHT22;276;48.392;9.950;2023-08-17T03:36:03;23.30;99.90
580;DHT22;276;48.392;9.950;2023-08-17T03:38:29;23.30;99.90
580;DHT22;276;48.392;9.950;2023-08-17T03:40:57;23.30;99.90
580;DHT22;276;48.392;9.950;2023-08-17T03:43:23;23.30;99.90
580;DHT22;276;48.392;9.950;2023-08-17T03:45:49;23.20;99.90
580;DHT22;276;48.392;9.950;2023-08-17T03:48:14;23.20;99.90
580;DHT22;276;48.392;9.950;2023-08-17T03:50:40;23.20;99.90
580;DHT22;276;48.392;9.950;2023-08-17T03:53:05;23.20;99.90
580;DHT22;276;48.392;9.950;2023-08-17T03:55:31;23.10;99.90
580;DHT22;276;48.392;9.950;2023-08-17T03:59:58;23.10;99.90
580;DHT22;276;48.392;9.950;2023-08-17T04:02:24;23.00;99.90
580;DHT22;276;48.392;9.950;2023-08-17T04:04:51;23.00;99.90
580;DHT22;276;48.392;9.950;2023-08-17T04:07:21;22.90;99.90
580;DHT22;276;48.392;9.950;2023-08-17T04:09:47;22.90;99.90
580;DHT22;276;48.392;9.950;2023-08-17T04:12:13;22.90;99.90
580;DHT22;276;48.392;9.950;2023-08-17T04:14:44;22.80;99.90
580;DHT22;276;48.392;9.950;2023-08-17T04:17:12;22.90;99.90
580;DHT22;276;48.392;9.950;2023-08-17T04:19:40;22.80;99.90
580;DHT22;276;48.392;9.950;2023-08-17T04:22:05;22.80;99.90
580;DHT22;276;48.392;9.950;2023-08-17T04:24:33;22.80;99.90
580;DHT22;276;48.392;9.950;2023-08-17T04:26:59;22.80;99.90
580;DHT22;276;48.392;9.950;2023-08-17T04:29:27;22.80;99.90
580;DHT22;276;48.392;9.950;2023-08-17T04:31:53;22.80;99.90
580;DHT22;276;48.392;9.950;2023-08-17T04:34:21;22.80;99.90
580;DHT22;276;48.392;9.950;2023-08-17T04:36:49;22.70;99.90
580;DHT22;276;48.392;9.950;2023-08-17T04:39:17;22.70;99.90
580;DHT22;276;48.392;9.950;2023-08-17T04:41:43;22.70;99.90
580;DHT22;276;48.392;9.950;2023-08-17T04:44:11;22.70;99.90
580;DHT22;276;48.392;9.950;2023-08-17T04:46:37;22.60;99.90
580;DHT22;276;48.392;9.950;2023-08-17T04:49:02;22.60;99.90
580;DHT22;276;48.392;9.950;2023-08-17T04:51:28;22.60;99.90
580;DHT22;276;48.392;9.950;2023-08-17T04:53:53;22.60;99.90
580;DHT22;276;48.392;9.950;2023-08-17T04:56:20;22.60;99.90
580;DHT22;276;48.392;9.950;2023-08-17T04:58:48;22.60;99.90
580;DHT22;276;48.392;9.950;2023-08-17T05:01:13;22.60;99.90
580;DHT22;276;48.392;9.950;2023-08-17T05:03:39;22.70;99.90
580;DHT22;276;48.392;9.950;2023-08-17T05:06:08;22.70;99.90
580;DHT22;276;48.392;9.950;2023-08-17T05:08:34;22.70;99.90
580;DHT22;276;48.392;9.950;2023-08-17T05:10:59;22.70;99.90
580;DHT22;276;48.392;9.950;2023-08-17T05:13:25;22.70;99.90
580;DHT22;276;48.392;9.950;2023-08-17T05:15:50;22.70;99.90
580;DHT22;276;48.392;9.950;2023-08-17T05:18:16;22.70;99.90
580;DHT22;276;48.392;9.950;2023-08-17T05:20:41;22.70;99.90
580;DHT22;276;48.392;9.950;2023-08-17T05:23:10;22.70;99.90
580;DHT22;276;48.392;9.950;2023-08-17T05:25:37;22.70;99.90
580;DHT22;276;48.392;9.950;2023-08-17T05:28:03;22.70;99.90
580;DHT22;276;48.392;9.950;2023-08-17T05:30:35;22.80;99.90
580;DHT22;276;48.392;9.950;2023-08-17T05:33:03;22.80;99.90
580;DHT22;276;48.392;9.950;2023-08-17T05:35:28;22.80;99.90
580;DHT22;276;48.392;9.950;2023-08-17T05:37:56;22.80;99.90
580;DHT22;276;48.392;9.950;2023-08-17T05:40:25;22.90;99.90
580;DHT22;276;48.392;9.950;2023-08-17T05:42:53;22.90;99.90
580;DHT22;276;48.392;9.950;2023-08-17T05:45:18;22.90;99.90
580;DHT22;276;48.392;9.950;2023-08-17T05:47:44;23.00;99.90
580;DHT22;276;48.392;9.950;2023-08-17T05:50:14;23.10;99.90
580;DHT22;276;48.392;9.950;2023-08-17T05:52:41;23.10;99.90
580;DHT22;276;48.392;9.950;2023-08-17T05:55:06;23.20;99.90
580;DHT22;276;48.392;9.950;2023-08-17T05:57:32;23.30;99.90
580;DHT22;276;48.392;9.950;2023-08-17T05:59:58;23.30;99.90
580;DHT22;276;48.392;9.950;2023-08-17T06:02:26;23.40;99.90
580;DHT22;276;48.392;9.950;2023-08-17T06:04:56;23.40;99.90
580;DHT22;276;48.392;9.950;2023-08-17T06:07:24;23.50;99.90
580;DHT22;276;48.392;9.950;2023-08-17T06:09:52;23.60;99.90
580;DHT22;276;48.392;9.950;2023-08-17T06:12:22;23.60;99.90
580;DHT22;276;48.392;9.950;2023-08-17T06:14:48;23.70;99.90
580;DHT22;276;48.392;9.950;2023-08-17T06:17:13;23.80;99.90
580;DHT22;276;48.392;9.950;2023-08-17T06:19:39;23.80;99.90
580;DHT22;276;48.392;9.950;2023-08-17T06:22:05;24.00;99.90
580;DHT22;276;48.392;9.950;2023-08-17T06:24:31;24.10;99.90
580;DHT22;276;48.392;9.950;2023-08-17T06:26:56;24.20;99.90
580;DHT22;276;48.392;9.950;2023-08-17T06:29:22;24.30;99.90
580;DHT22;276;48.392;9.950;2023-08-17T06:31:48;24.40;99.90
580;DHT22;276;48.392;9.950;2023-08-17T06:34:13;24.60;99.90
580;DHT22;276;48.392;9.950;2023-08-17T06:36:40;24.70;99.90
580;DHT22;276;48.392;9.950;2023-08-17T06:39:06;24.80;99.90
580;DHT22;276;48.392;9.950;2023-08-17T06:41:31;24.90;99.90
580;DHT22;276;48.392;9.950;2023-08-17T06:43:57;24.90;99.90
580;DHT22;276;48.392;9.950;2023-08-17T06:46:27;25.00;99.90
580;DHT22;276;48.392;9.950;2023-08-17T06:48:55;25.10;99.90
580;DHT22;276;48.392;9.950;2023-08-17T06:51:21;25.10;99.90
580;DHT22;276;48.392;9.950;2023-08-17T06:53:47;25.20;99.90
580;DHT22;276;48.392;9.950;2023-08-17T06:56:12;25.30;99.90
580;DHT22;276;48.392;9.950;2023-08-17T06:58:40;25.30;99.90
580;DHT22;276;48.392;9.950;2023-08-17T07:01:08;25.40;99.90
580;DHT22;276;48.392;9.950;2023-08-17T07:03:34;25.40;99.90
580;DHT22;276;48.392;9.950;2023-08-17T07:06:02;25.50;99.90
580;DHT22;276;48.392;9.950;2023-08-17T07:08:28;25.60;99.90
580;DHT22;276;48.392;9.950;2023-08-17T07:10:53;25.70;99.90
580;DHT22;276;48.392;9.950;2023-08-17T07:13:19;25.80;99.90
580;DHT22;276;48.392;9.950;2023-08-17T07:15:44;25.80;99.90
580;DHT22;276;48.392;9.950;2023-08-17T07:18:12;25.90;99.90
580;DHT22;276;48.392;9.950;2023-08-17T07:20:38;26.00;99.90
580;DHT22;276;48.392;9.950;2023-08-17T07:23:03;26.00;99.90
580;DHT22;276;48.392;9.950;2023-08-17T07:25:33;26.10;99.90
580;DHT22;276;48.392;9.950;2023-08-17T07:28:01;26.20;99.90
580;DHT22;276;48.392;9.950;2023-08-17T07:30:29;26.30;99.90
580;DHT22;276;48.392;9.950;2023-08-17T07:32:57;26.30;99.90
580;DHT22;276;48.392;9.950;2023-08-17T07:35:23;26.40;99.90
580;DHT22;276;48.392;9.950;2023-08-17T07:37:53;26.50;99.90
580;DHT22;276;48.392;9.950;2023-08-17T07:40:21;26.60;99.90
580;DHT22;276;48.392;9.950;2023-08-17T07:42:47;26.70;99.90
580;DHT22;276;48.392;9.950;2023-08-17T07:45:13;26.70;99.90
580;DHT22;276;48.392;9.950;2023-08-17T07:47:38;26.90;99.90
580;DHT22;276;48.392;9.950;2023-08-17T07:50:07;26.90;99.90
580;DHT22;276;48.392;9.950;2023-08-17T07:52:33;27.00;99.90
580;DHT22;276;48.392;9.950;2023-08-17T07:54:58;27.00;99.90
580;DHT22;276;48.392;9.950;2023-08-17T07:57:25;27.00;99.90
580;DHT22;276;48.392;9.950;2023-08-17T07:59:55;27.10;99.90
580;DHT22;276;48.392;9.950;2023-08-17T08:02:21;27.10;99.90
580;DHT22;276;48.392;9.950;2023-08-17T08:04:46;27.20;99.90
580;DHT22;276;48.392;9.950;2023-08-17T08:07:15;27.30;99.90
580;DHT22;276;48.392;9.950;2023-08-17T08:09:40;27.50;99.90
580;DHT22;276;48.392;9.950;2023-08-17T08:12:06;27.60;99.90
580;DHT22;276;48.392;9.950;2023-08-17T08:14:35;27.70;99.90
580;DHT22;276;48.392;9.950;2023-08-17T08:17:01;27.80;99.90
580;DHT22;276;48.392;9.950;2023-08-17T08:19:31;27.80;99.90
580;DHT22;276;48.392;9.950;2023-08-17T08:21:58;27.70;99.90
580;DHT22;276;48.392;9.950;2023-08-17T08:24:24;27.80;99.90
580;DHT22;276;48.392;9.950;2023-08-17T08:26:49;27.80;99.90
580;DHT22;276;48.392;9.950;2023-08-17T08:29:16;27.70;99.90
580;DHT22;276;48.392;9.950;2023-08-17T08:31:42;27.60;99.90
580;DHT22;276;48.392;9.950;2023-08-17T08:34:07;27.60;99.90
580;DHT22;276;48.392;9.950;2023-08-17T08:36:33;27.60;99.90
580;DHT22;276;48.392;9.950;2023-08-17T08:39:05;27.70;99.90
580;DHT22;276;48.392;9.950;2023-08-17T08:41:34;27.70;99.90
580;DHT22;276;48.392;9.950;2023-08-17T08:44:00;27.80;99.90
580;DHT22;276;48.392;9.950;2023-08-17T08:46:30;27.90;99.90
580;DHT22;276;48.392;9.950;2023-08-17T08:48:56;27.90;99.90
580;DHT22;276;48.392;9.950;2023-08-17T08:51:28;27.90;99.90
580;DHT22;276;48.392;9.950;2023-08-17T08:54:01;28.10;99.90
580;DHT22;276;48.392;9.950;2023-08-17T08:56:35;28.20;99.90
580;DHT22;276;48.392;9.950;2023-08-17T08:59:04;28.30;99.90
580;DHT22;276;48.392;9.950;2023-08-17T09:01:33;28.40;99.90
580;DHT22;276;48.392;9.950;2023-08-17T09:04:01;28.50;99.90
580;DHT22;276;48.392;9.950;2023-08-17T09:06:29;28.60;99.90
580;DHT22;276;48.392;9.950;2023-08-17T09:09:03;28.70;99.90
580;DHT22;276;48.392;9.950;2023-08-17T09:11:29;28.90;99.90
580;DHT22;276;48.392;9.950;2023-08-17T09:13:55;29.00;99.90
580;DHT22;276;48.392;9.950;2023-08-17T09:16:23;29.10;99.50
580;DHT22;276;48.392;9.950;2023-08-17T09:18:49;29.20;99.20
580;DHT22;276;48.392;9.950;2023-08-17T09:21:23;29.30;99.30
580;DHT22;276;48.392;9.950;2023-08-17T09:23:52;29.50;99.40
580;DHT22;276;48.392;9.950;2023-08-17T09:26:20;29.50;99.00
580;DHT22;276;48.392;9.950;2023-08-17T09:28:50;29.60;98.50
580;DHT22;276;48.392;9.950;2023-08-17T09:31:15;29.70;98.30
580;DHT22;276;48.392;9.950;2023-08-17T09:33:41;29.80;98.30
580;DHT22;276;48.392;9.950;2023-08-17T09:36:10;29.80;97.50
580;DHT22;276;48.392;9.950;2023-08-17T09:38:37;29.80;96.10
580;DHT22;276;48.392;9.950;2023-08-17T09:41:05;29.70;96.00
580;DHT22;276;48.392;9.950;2023-08-17T09:43:32;29.70;95.90
580;DHT22;276;48.392;9.950;2023-08-17T09:45:59;29.70;96.20
580;DHT22;276;48.392;9.950;2023-08-17T09:48:28;29.80;96.50
580;DHT22;276;48.392;9.950;2023-08-17T09:50:58;29.90;96.40
580;DHT22;276;48.392;9.950;2023-08-17T09:53:26;30.00;96.30
580;DHT22;276;48.392;9.950;2023-08-17T09:55:53;30.00;95.90
580;DHT22;276;48.392;9.950;2023-08-17T09:58:20;30.00;95.40
580;DHT22;276;48.392;9.950;2023-08-17T10:00:48;30.10;95.20
580;DHT22;276;48.392;9.950;2023-08-17T10:03:18;30.10;94.00
580;DHT22;276;48.392;9.950;2023-08-17T10:05:45;30.10;93.80
580;DHT22;276;48.392;9.950;2023-08-17T10:08:11;30.20;93.20
580;DHT22;276;48.392;9.950;2023-08-17T10:10:43;30.20;93.10
580;DHT22;276;48.392;9.950;2023-08-17T10:18:54;30.40;93.00
580;DHT22;276;48.392;9.950;2023-08-17T10:21:39;30.50;92.90
580;DHT22;276;48.392;9.950;2023-08-17T10:24:07;30.60;92.70
580;DHT22;276;48.392;9.950;2023-08-17T10:26:33;30.70;92.90
580;DHT22;276;48.392;9.950;2023-08-17T10:28:59;30.80;92.90
580;DHT22;276;48.392;9.950;2023-08-17T10:31:28;30.80;92.60
580;DHT22;276;48.392;9.950;2023-08-17T10:33:54;30.90;92.60
580;DHT22;276;48.392;9.950;2023-08-17T10:36:24;31.00;92.50
580;DHT22;276;48.392;9.950;2023-08-17T10:39:25;31.10;92.30
580;DHT22;276;48.392;9.950;2023-08-17T10:41:51;31.20;92.50
580;DHT22;276;48.392;9.950;2023-08-17T10:44:18;31.20;91.60
580;DHT22;276;48.392;9.950;2023-08-17T10:49:56;31.40;90.90
580;DHT22;276;48.392;9.950;2023-08-17T10:52:30;31.40;90.10
580;DHT22;276;48.392;9.950;2023-08-17T10:54:59;31.50;89.70
580;DHT22;276;48.392;9.950;2023-08-17T10:57:40;31.50;89.40
580;DHT22;276;48.392;9.950;2023-08-17T11:02:56;31.60;90.10
580;DHT22;276;48.392;9.950;2023-08-17T11:11:12;31.60;90.70
580;DHT22;276;48.392;9.950;2023-08-17T11:13:42;31.50;91.20
580;DHT22;276;48.392;9.950;2023-08-17T11:16:11;31.40;90.90
580;DHT22;276;48.392;9.950;2023-08-17T11:18:40;31.50;91.40
580;DHT22;276;48.392;9.950;2023-08-17T11:21:09;31.40;91.30
580;DHT22;276;48.392;9.950;2023-08-17T11:23:37;31.40;91.00
580;DHT22;276;48.392;9.950;2023-08-17T11:26:03;31.30;91.20
580;DHT22;276;48.392;9.950;2023-08-17T11:28:33;31.40;91.70
580;DHT22;276;48.392;9.950;2023-08-17T11:31:10;31.40;91.70
580;DHT22;276;48.392;9.950;2023-08-17T11:33:39;31.50;91.90
580;DHT22;276;48.392;9.950;2023-08-17T11:36:10;31.50;91.60
580;DHT22;276;48.392;9.950;2023-08-17T11:38:43;31.50;91.90
580;DHT22;276;48.392;9.950;2023-08-17T11:41:11;31.50;91.60
580;DHT22;276;48.392;9.950;2023-08-17T11:43:45;31.60;92.10
580;DHT22;276;48.392;9.950;2023-08-17T11:46:11;31.60;92.20
580;DHT22;276;48.392;9.950;2023-08-17T11:48:37;31.70;92.20
580;DHT22;276;48.392;9.950;2023-08-17T11:51:05;31.80;92.30
580;DHT22;276;48.392;9.950;2023-08-17T11:53:35;31.80;91.80
580;DHT22;276;48.392;9.950;2023-08-17T11:56:01;31.80;91.70
580;DHT22;276;48.392;9.950;2023-08-17T11:58:43;31.80;91.60
580;DHT22;276;48.392;9.950;2023-08-17T12:01:10;31.80;91.30
580;DHT22;276;48.392;9.950;2023-08-17T12:03:38;31.80;91.40
580;DHT22;276;48.392;9.950;2023-08-17T12:06:05;31.80;91.30
580;DHT22;276;48.392;9.950;2023-08-17T12:08:30;31.70;91.40
580;DHT22;276;48.392;9.950;2023-08-17T12:10:58;31.70;91.90
580;DHT22;276;48.392;9.950;2023-08-17T12:13:42;31.70;91.60
580;DHT22;276;48.392;9.950;2023-08-17T12:16:20;31.70;91.60
580;DHT22;276;48.392;9.950;2023-08-17T12:18:55;31.70;92.00
580;DHT22;276;48.392;9.950;2023-08-17T12:21:23;31.80;92.30
580;DHT22;276;48.392;9.950;2023-08-17T12:23:49;31.80;92.30
580;DHT22;276;48.392;9.950;2023-08-17T12:26:20;31.80;91.90
580;DHT22;276;48.392;9.950;2023-08-17T12:28:46;31.90;91.60
580;DHT22;276;48.392;9.950;2023-08-17T12:31:11;31.80;91.00
580;DHT22;276;48.392;9.950;2023-08-17T12:33:39;31.90;90.80
580;DHT22;276;48.392;9.950;2023-08-17T12:36:08;31.90;91.00
580;DHT22;276;48.392;9.950;2023-08-17T12:38:34;31.80;90.90
580;DHT22;276;48.392;9.950;2023-08-17T12:40:59;31.80;91.10
580;DHT22;276;48.392;9.950;2023-08-17T12:43:27;31.80;90.60
580;DHT22;276;48.392;9.950;2023-08-17T12:45:57;31.80;90.60
580;DHT22;276;48.392;9.950;2023-08-17T12:48:23;31.80;90.80
580;DHT22;276;48.392;9.950;2023-08-17T12:50:48;31.80;90.80
580;DHT22;276;48.392;9.950;2023-08-17T12:53:14;31.80;90.80
580;DHT22;276;48.392;9.950;2023-08-17T12:55:40;31.80;90.60
580;DHT22;276;48.392;9.950;2023-08-17T12:58:08;31.70;89.60
580;DHT22;276;48.392;9.950;2023-08-17T13:00:34;31.80;90.20
580;DHT22;276;48.392;9.950;2023-08-17T13:03:02;31.80;90.30
580;DHT22;276;48.392;9.950;2023-08-17T13:05:27;31.90;90.60
580;DHT22;276;48.392;9.950;2023-08-17T13:07:55;31.90;90.50
580;DHT22;276;48.392;9.950;2023-08-17T13:10:21;31.90;87.40
580;DHT22;276;48.392;9.950;2023-08-17T13:12:49;31.70;87.20
580;DHT22;276;48.392;9.950;2023-08-17T13:15:25;31.50;87.70
580;DHT22;276;48.392;9.950;2023-08-17T13:17:55;31.40;88.20
580;DHT22;276;48.392;9.950;2023-08-17T13:20:23;31.40;89.30
580;DHT22;276;48.392;9.950;2023-08-17T13:22:51;31.40;90.30
580;DHT22;276;48.392;9.950;2023-08-17T13:25:17;31.20;90.00
580;DHT22;276;48.392;9.950;2023-08-17T13:27:42;31.00;88.50
580;DHT22;276;48.392;9.950;2023-08-17T13:30:08;30.70;88.40
580;DHT22;276;48.392;9.950;2023-08-17T13:32:36;30.40;88.30
580;DHT22;276;48.392;9.950;2023-08-17T13:35:05;30.20;87.00
580;DHT22;276;48.392;9.950;2023-08-17T13:37:31;29.90;86.00
580;DHT22;276;48.392;9.950;2023-08-17T13:39:56;29.70;87.10
580;DHT22;276;48.392;9.950;2023-08-17T13:42:26;29.40;88.10
580;DHT22;276;48.392;9.950;2023-08-17T13:44:51;29.20;89.20
580;DHT22;276;48.392;9.950;2023-08-17T13:47:17;29.10;89.50
580;DHT22;276;48.392;9.950;2023-08-17T13:49:42;28.90;89.10
580;DHT22;276;48.392;9.950;2023-08-17T13:52:10;28.80;88.60
580;DHT22;276;48.392;9.950;2023-08-17T13:54:36;28.60;87.90
580;DHT22;276;48.392;9.950;2023-08-17T13:57:02;28.50;88.10
580;DHT22;276;48.392;9.950;2023-08-17T13:59:29;28.40;88.00
580;DHT22;276;48.392;9.950;2023-08-17T14:02:00;28.30;88.10
580;DHT22;276;48.392;9.950;2023-08-17T14:04:25;28.20;88.60
580;DHT22;276;48.392;9.950;2023-08-17T14:06:53;28.10;89.40
580;DHT22;276;48.392;9.950;2023-08-17T14:09:19;28.00;90.20
580;DHT22;276;48.392;9.950;2023-08-17T14:11:44;27.90;90.60
580;DHT22;276;48.392;9.950;2023-08-17T14:14:10;27.90;90.90
580;DHT22;276;48.392;9.950;2023-08-17T14:16:38;27.80;91.10
580;DHT22;276;48.392;9.950;2023-08-17T14:19:04;27.80;91.40
580;DHT22;276;48.392;9.950;2023-08-17T14:21:29;27.70;91.70
580;DHT22;276;48.392;9.950;2023-08-17T14:23:55;27.70;91.90
580;DHT22;276;48.392;9.950;2023-08-17T14:26:23;27.70;92.20
580;DHT22;276;48.392;9.950;2023-08-17T14:28:51;27.60;92.40
580;DHT22;276;48.392;9.950;2023-08-17T14:31:19;27.60;92.60
580;DHT22;276;48.392;9.950;2023-08-17T14:33:48;27.50;92.70
580;DHT22;276;48.392;9.950;2023-08-17T14:36:15;27.40;92.80
580;DHT22;276;48.392;9.950;2023-08-17T14:38:45;27.30;92.80
580;DHT22;276;48.392;9.950;2023-08-17T14:41:13;27.20;92.60
580;DHT22;276;48.392;9.950;2023-08-17T14:43:39;27.00;92.60
580;DHT22;276;48.392;9.950;2023-08-17T14:46:07;26.90;92.60
580;DHT22;276;48.392;9.950;2023-08-17T14:48:35;26.70;92.70
580;DHT22;276;48.392;9.950;2023-08-17T14:51:03;26.50;93.20
580;DHT22;276;48.392;9.950;2023-08-17T14:53:31;26.30;93.70
580;DHT22;276;48.392;9.950;2023-08-17T14:55:56;26.30;94.60
580;DHT22;276;48.392;9.950;2023-08-17T14:58:24;26.20;94.70
580;DHT22;276;48.392;9.950;2023-08-17T15:00:50;26.20;95.10
580;DHT22;276;48.392;9.950;2023-08-17T15:03:18;26.10;96.30
580;DHT22;276;48.392;9.950;2023-08-17T15:05:46;26.10;97.30
580;DHT22;276;48.392;9.950;2023-08-17T15:08:11;26.10;97.80
580;DHT22;276;48.392;9.950;2023-08-17T15:10:39;26.00;98.10
580;DHT22;276;48.392;9.950;2023-08-17T15:13:07;25.80;98.10
580;DHT22;276;48.392;9.950;2023-08-17T15:15:33;25.70;98.40
580;DHT22;276;48.392;9.950;2023-08-17T15:18:04;25.60;98.70
580;DHT22;276;48.392;9.950;2023-08-17T15:20:30;25.60;99.20
580;DHT22;276;48.392;9.950;2023-08-17T15:23:00;25.60;99.70
580;DHT22;276;48.392;9.950;2023-08-17T15:25:28;25.40;99.90
580;DHT22;276;48.392;9.950;2023-08-17T15:27:56;25.20;99.90
580;DHT22;276;48.392;9.950;2023-08-17T15:30:22;25.00;99.90
580;DHT22;276;48.392;9.950;2023-08-17T15:32:50;24.90;99.90
580;DHT22;276;48.392;9.950;2023-08-17T15:35:20;24.90;99.90
580;DHT22;276;48.392;9.950;2023-08-17T15:37:48;24.90;99.90
580;DHT22;276;48.392;9.950;2023-08-17T15:40:16;24.80;99.90
580;DHT22;276;48.392;9.950;2023-08-17T15:42:47;24.80;99.90
580;DHT22;276;48.392;9.950;2023-08-17T15:45:13;24.80;99.90
580;DHT22;276;48.392;9.950;2023-08-17T15:47:38;24.80;99.90
580;DHT22;276;48.392;9.950;2023-08-17T15:50:09;24.90;99.90
580;DHT22;276;48.392;9.950;2023-08-17T15:52:34;24.90;99.90
580;DHT22;276;48.392;9.950;2023-08-17T15:55:02;24.90;99.90
580;DHT22;276;48.392;9.950;2023-08-17T15:57:28;24.90;99.90
580;DHT22;276;48.392;9.950;2023-08-17T15:59:58;24.90;99.90
580;DHT22;276;48.392;9.950;2023-08-17T16:02:26;24.90;99.90
580;DHT22;276;48.392;9.950;2023-08-17T16:04:52;24.90;99.90
580;DHT22;276;48.392;9.950;2023-08-17T16:07:20;24.90;99.90
580;DHT22;276;48.392;9.950;2023-08-17T16:09:45;25.00;99.90
580;DHT22;276;48.392;9.950;2023-08-17T16:12:16;25.00;99.90
580;DHT22;276;48.392;9.950;2023-08-17T16:14:46;25.10;99.90
580;DHT22;276;48.392;9.950;2023-08-17T16:17:14;25.10;99.90
580;DHT22;276;48.392;9.950;2023-08-17T16:19:39;25.10;99.90
580;DHT22;276;48.392;9.950;2023-08-17T16:22:05;25.10;99.90
580;DHT22;276;48.392;9.950;2023-08-17T16:24:30;25.10;99.90
580;DHT22;276;48.392;9.950;2023-08-17T16:26:56;25.10;99.90
580;DHT22;276;48.392;9.950;2023-08-17T16:29:28;25.20;99.90
580;DHT22;276;48.392;9.950;2023-08-17T16:32:03;25.20;99.90
580;DHT22;276;48.392;9.950;2023-08-17T16:34:34;25.20;99.90
580;DHT22;276;48.392;9.950;2023-08-17T16:37:03;25.20;99.90
580;DHT22;276;48.392;9.950;2023-08-17T16:39:31;25.20;99.90
580;DHT22;276;48.392;9.950;2023-08-17T16:41:59;25.20;99.90
580;DHT22;276;48.392;9.950;2023-08-17T16:44:27;25.20;99.90
580;DHT22;276;48.392;9.950;2023-08-17T16:46:52;25.20;99.90
580;DHT22;276;48.392;9.950;2023-08-17T16:49:20;25.20;99.90
580;DHT22;276;48.392;9.950;2023-08-17T16:51:48;25.10;99.90
580;DHT22;276;48.392;9.950;2023-08-17T16:54:14;25.10;99.90
580;DHT22;276;48.392;9.950;2023-08-17T16:56:42;25.00;99.90
580;DHT22;276;48.392;9.950;2023-08-17T16:59:09;24.90;99.90